Time;durP1;ratioP1;P1;durP2;ratioP2;P2;SDS_P1;SDS_P2;PMS_P1;PMS_P2;Temp;Humidity;BMP_temperature;BMP_pressure;BME280_temperature;BME280_humidity;BME280_pressure;Samples;Min_cycle;Max_cycle;Signal;HPM_P1;HPM_P2
2021/08/24 00:00:25;;;;;;;0.70;0.60;;;;;;;13.09;100.00;-21037.84;5087637;28;20479;-70
2021/08/24 00:02:53;;;;;;;0.70;0.70;;;;;;;13.06;100.00;-21037.03;5053696;28;20942;-70
2021/08/24 00:05:23;;;;;;;0.80;0.70;;;;;;;13.12;100.00;-21038.53;5054753;28;20443;-70
2021/08/24 00:07:52;;;;;;;1.90;0.97;;;;;;;13.12;100.00;-21038.69;5055789;28;21013;-70
2021/08/24 00:10:20;;;;;;;0.70;0.60;;;;;;;13.09;100.00;-21037.72;5055006;28;20421;-70
2021/08/24 00:12:47;;;;;;;0.70;0.70;;;;;;;13.02;100.00;-21036.06;5053258;28;20439;-70
2021/08/24 00:15:16;;;;;;;0.80;0.70;;;;;;;13.01;100.00;-21035.78;5035483;28;20471;-70
2021/08/24 00:17:43;;;;;;;0.70;0.70;;;;;;;12.98;100.00;-21034.81;5041755;28;20464;-70
2021/08/24 00:20:12;;;;;;;0.70;0.60;;;;;;;12.95;100.00;-21034.00;5054966;28;20563;-70
2021/08/24 00:22:41;;;;;;;0.70;0.70;;;;;;;12.91;100.00;-21032.88;5055122;28;20981;-70
2021/08/24 00:25:11;;;;;;;0.77;0.70;;;;;;;12.88;100.00;-21032.19;5053651;28;20790;-70
2021/08/24 00:27:40;;;;;;;0.80;0.70;;;;;;;12.84;100.00;-21031.09;5054950;28;20443;-69
2021/08/24 00:30:09;;;;;;;0.80;0.80;;;;;;;12.79;100.00;-21029.72;5053951;28;20415;-70
2021/08/24 00:32:37;;;;;;;0.80;0.70;;;;;;;12.79;100.00;-21029.84;5052337;28;20466;-70
2021/08/24 00:35:06;;;;;;;0.70;0.70;;;;;;;12.79;100.00;-21029.72;5039327;28;20460;-70
2021/08/24 00:37:33;;;;;;;0.70;0.70;;;;;;;12.69;100.00;-21027.09;5052981;28;20959;-71
2021/08/24 00:40:01;;;;;;;0.70;0.70;;;;;;;12.70;100.00;-21027.38;5054703;28;20518;-70
2021/08/24 00:42:50;;;;;;;0.80;0.80;;;;;;;12.70;100.00;-21027.22;5051694;28;20420;-70
2021/08/24 00:45:17;;;;;;;1.17;1.07;;;;;;;12.68;100.00;-21026.81;5051980;28;20453;-70
2021/08/24 00:47:49;;;;;;;0.70;0.60;;;;;;;12.68;100.00;-21026.69;5036187;28;20470;-70
2021/08/24 00:50:44;;;;;;;0.80;0.70;;;;;;;12.63;100.00;-21025.31;5054677;28;20920;-70
2021/08/24 00:53:16;;;;;;;0.80;0.70;;;;;;;12.62;100.00;-21025.03;5054366;28;20454;-70
2021/08/24 00:55:46;;;;;;;0.70;0.60;;;;;;;12.57;100.00;-21023.78;5036510;28;20442;-70
2021/08/24 00:58:16;;;;;;;0.70;0.60;;;;;;;12.55;100.00;-21023.22;5053330;28;20414;-70
2021/08/24 01:00:45;;;;;;;2.40;1.10;;;;;;;12.54;100.00;-21023.09;5086482;28;20559;-70
2021/08/24 01:03:16;;;;;;;0.70;0.60;;;;;;;12.48;100.00;-21021.44;5052789;28;20451;-70
2021/08/24 01:05:45;;;;;;;0.70;0.70;;;;;;;12.45;100.00;-21020.47;5054479;28;20414;-70
2021/08/24 01:08:20;;;;;;;0.80;0.70;;;;;;;12.43;100.00;-21020.06;5053021;28;20495;-70
2021/08/24 01:11:03;;;;;;;0.80;0.70;;;;;;;12.40;100.00;-21019.22;5053657;28;20755;-69
2021/08/24 01:13:37;;;;;;;0.80;0.77;;;;;;;12.45;100.00;-21020.47;5054175;28;20966;-71
2021/08/24 01:16:36;;;;;;;0.80;0.73;;;;;;;12.42;100.00;-21019.78;5053330;28;20438;-69
2021/08/24 01:19:38;;;;;;;0.70;0.70;;;;;;;12.39;100.00;-21018.81;5053758;28;20404;-70
2021/08/24 01:22:47;;;;;;;0.70;0.70;;;;;;;12.43;100.00;-21020.06;5052953;28;20469;-69
2021/08/24 01:25:20;;;;;;;0.70;0.70;;;;;;;12.35;100.00;-21017.84;5053205;28;20536;-70
2021/08/24 01:27:56;;;;;;;0.70;0.60;;;;;;;12.32;100.00;-21017.16;5046914;28;20432;-70
2021/08/24 01:30:44;;;;;;;0.70;0.60;;;;;;;12.37;100.00;-21018.25;5054287;28;20420;-70
2021/08/24 01:33:43;;;;;;;0.70;0.60;;;;;;;12.29;100.00;-21016.19;5052136;28;20455;-70
2021/08/24 01:36:18;;;;;;;0.70;0.70;;;;;;;12.28;100.00;-21015.91;5054121;28;20414;-69
2021/08/24 01:38:56;;;;;;;0.70;0.60;;;;;;;12.26;100.00;-21015.38;5052650;28;20517;-69
2021/08/24 01:41:33;;;;;;;0.70;0.70;;;;;;;12.24;100.00;-21014.94;5035708;28;20565;-71
2021/08/24 01:44:07;;;;;;;0.70;0.70;;;;;;;12.24;100.00;-21014.94;5052133;28;21025;-69
2021/08/24 01:46:41;;;;;;;0.70;0.70;;;;;;;12.15;100.00;-21012.47;5053520;28;20468;-70
2021/08/24 01:49:11;;;;;;;0.70;0.60;;;;;;;12.08;100.00;-21010.53;5035333;28;20448;-70
2021/08/24 01:51:44;;;;;;;0.70;0.60;;;;;;;12.13;100.00;-21011.91;5035735;28;20426;-71
2021/08/24 01:54:41;;;;;;;0.73;0.73;;;;;;;12.14;100.00;-21012.06;5052752;28;20484;-70
2021/08/24 01:57:13;;;;;;;0.80;0.80;;;;;;;12.17;100.00;-21013.03;5036189;28;20463;-70
2021/08/24 01:59:46;;;;;;;0.80;0.77;;;;;;;12.18;100.00;-21013.16;5053518;28;20421;-69
2021/08/24 02:02:16;;;;;;;0.80;0.70;;;;;;;12.28;100.00;-21015.91;5051513;28;20452;-69
2021/08/24 02:04:54;;;;;;;0.80;0.80;;;;;;;12.39;100.00;-21018.97;5052784;28;20431;-69
2021/08/24 02:07:27;;;;;;;0.80;0.80;;;;;;;12.45;100.00;-21020.63;5053422;28;20756;-70
2021/08/24 02:10:07;;;;;;;0.70;0.60;;;;;;;12.53;100.00;-21022.81;5053127;28;20496;-70
2021/08/24 02:12:37;;;;;;;0.80;0.70;;;;;;;12.65;100.00;-21025.84;5053561;28;20431;-70
2021/08/24 02:15:05;;;;;;;0.70;0.70;;;;;;;12.76;100.00;-21028.88;5053196;28;20435;-70
2021/08/24 02:17:34;;;;;;;0.80;0.70;;;;;;;12.89;100.00;-21032.47;5052911;28;20791;-70
2021/08/24 02:20:12;;;;;;;0.70;0.70;;;;;;;13.09;100.00;-21037.84;5051902;28;20444;-70
2021/08/24 02:22:43;;;;;;;0.70;0.60;;;;;;;13.21;100.00;-21041.03;5055491;28;20421;-70
2021/08/24 02:25:15;;;;;;;0.70;0.60;;;;;;;13.31;100.00;-21043.66;5057590;28;20752;-69
2021/08/24 02:27:58;;;;;;;0.70;0.60;;;;;;;13.32;100.00;-21043.94;5057061;28;20935;-69
2021/08/24 02:30:28;;;;;;;0.70;0.70;;;;;;;13.34;100.00;-21044.63;5056664;28;20487;-70
2021/08/24 02:32:55;;;;;;;0.70;0.70;;;;;;;13.31;100.00;-21043.78;5055996;28;20538;-69
2021/08/24 02:35:29;;;;;;;0.70;0.60;;;;;;;13.37;100.00;-21045.44;5055642;28;20452;-69
2021/08/24 02:38:02;;;;;;;0.80;0.70;;;;;;;13.35;100.00;-21044.88;5056948;28;20452;-70
2021/08/24 02:40:39;;;;;;;0.70;0.70;;;;;;;13.40;100.00;-21046.13;5056144;28;20463;-69
2021/08/24 02:43:17;;;;;;;0.80;0.73;;;;;;;13.45;100.00;-21047.66;5054230;28;20459;-69
2021/08/24 02:45:52;;;;;;;0.70;0.70;;;;;;;13.47;100.00;-21048.19;5037210;28;20412;-69
2021/08/24 02:48:21;;;;;;;0.70;0.70;;;;;;;13.50;100.00;-21048.88;5036776;28;20443;-70
2021/08/24 02:50:49;;;;;;;0.70;0.70;;;;;;;13.47;100.00;-21048.19;5036656;28;20479;-70
2021/08/24 02:53:19;;;;;;;0.70;0.70;;;;;;;13.42;100.00;-21046.81;5038964;28;20641;-70
2021/08/24 02:55:47;;;;;;;0.70;0.70;;;;;;;13.35;100.00;-21044.88;5056804;28;20780;-70
2021/08/24 02:58:19;;;;;;;0.70;0.70;;;;;;;13.31;100.00;-21043.78;5056967;28;20847;-70
2021/08/24 03:00:47;;;;;;;0.80;0.70;;;;;;;13.25;100.00;-21042.13;5056695;28;20454;-69
2021/08/24 03:03:16;;;;;;;0.80;0.80;;;;;;;13.22;100.00;-21041.31;5054277;28;20837;-70
2021/08/24 03:05:44;;;;;;;0.70;0.60;;;;;;;13.12;100.00;-21038.53;5056134;28;20436;-69
2021/08/24 03:08:12;;;;;;;0.80;0.80;;;;;;;12.97;100.00;-21034.69;5056137;28;20506;-70
2021/08/24 03:10:45;;;;;;;0.70;0.70;;;;;;;12.86;100.00;-21031.50;5056807;28;20408;-70
2021/08/24 03:13:21;;;;;;;0.60;0.50;;;;;;;12.72;100.00;-21027.78;5057351;28;20444;-70
2021/08/24 03:15:54;;;;;;;0.70;0.60;;;;;;;12.61;100.00;-21024.75;5056181;28;20239;-69
2021/08/24 03:18:26;;;;;;;0.80;0.70;;;;;;;12.56;100.00;-21023.66;5057365;28;20483;-69
2021/08/24 03:21:00;;;;;;;0.70;0.67;;;;;;;12.50;100.00;-21022.00;5055664;28;20463;-70
2021/08/24 03:23:29;;;;;;;0.70;0.70;;;;;;;12.40;100.00;-21019.22;5055921;28;20463;-70
2021/08/24 03:26:01;;;;;;;0.80;0.80;;;;;;;12.31;100.00;-21016.88;5055978;28;20429;-70
2021/08/24 03:28:29;;;;;;;0.73;0.73;;;;;;;12.28;100.00;-21015.91;5053303;28;20934;-70
2021/08/24 03:30:56;;;;;;;0.70;0.60;;;;;;;12.23;100.00;-21014.53;5072740;28;20449;-71
2021/08/24 03:33:23;;;;;;;0.73;0.73;;;;;;;12.18;100.00;-21013.16;5038138;28;20445;-69
2021/08/24 03:35:51;;;;;;;0.70;0.67;;;;;;;12.10;100.00;-21011.09;5055024;28;20522;-70
2021/08/24 03:38:18;;;;;;;0.70;0.60;;;;;;;12.04;100.00;-21009.56;5055441;28;20463;-70
2021/08/24 03:40:46;;;;;;;0.70;0.63;;;;;;;11.92;100.00;-21006.25;5055251;28;20409;-70
2021/08/24 03:43:16;;;;;;;0.70;0.60;;;;;;;11.88;100.00;-21005.16;5047368;28;20528;-69
2021/08/24 03:45:42;;;;;;;0.70;0.70;;;;;;;11.91;100.00;-21005.97;5039160;28;20440;-69
2021/08/24 03:48:10;;;;;;;0.70;0.60;;;;;;;11.88;100.00;-21005.00;5055331;28;20554;-69
2021/08/24 03:50:42;;;;;;;0.80;0.80;;;;;;;11.80;100.00;-21002.94;5054240;28;20442;-69
2021/08/24 03:53:12;;;;;;;0.70;0.60;;;;;;;11.75;100.00;-21001.56;5055398;28;20501;-69
2021/08/24 03:55:39;;;;;;;0.70;0.60;;;;;;;11.72;100.00;-21000.72;5054654;28;20517;-70
2021/08/24 03:58:07;;;;;;;0.80;0.80;;;;;;;11.69;100.00;-20999.91;5037147;28;20448;-70
2021/08/24 04:00:35;;;;;;;0.70;0.70;;;;;;;11.70;100.00;-21000.16;5054389;28;21151;-70
2021/08/24 04:03:03;;;;;;;0.80;0.70;;;;;;;11.71;100.00;-21000.44;5052779;28;20507;-70
2021/08/24 04:05:30;;;;;;;0.73;0.70;;;;;;;11.79;100.00;-21002.78;5054923;28;20932;-70
2021/08/24 04:07:57;;;;;;;0.70;0.60;;;;;;;11.73;100.00;-21001.00;5054984;28;20817;-70
2021/08/24 04:10:24;;;;;;;0.70;0.70;;;;;;;11.64;100.00;-20998.66;5055175;28;21016;-71
2021/08/24 04:12:51;;;;;;;0.70;0.70;;;;;;;11.64;100.00;-20998.66;5055544;28;20431;-69
2021/08/24 04:15:18;;;;;;;0.70;0.70;;;;;;;11.60;100.00;-20997.69;5053550;28;20459;-69
2021/08/24 04:17:47;;;;;;;0.80;0.70;;;;;;;11.53;100.00;-20995.75;5054527;28;20527;-69
2021/08/24 04:20:15;;;;;;;0.70;0.70;;;;;;;11.54;100.00;-20996.03;5054168;28;20432;-69
2021/08/24 04:22:45;;;;;;;0.80;0.80;;;;;;;11.52;100.00;-20995.47;5054124;28;20902;-69
2021/08/24 04:25:13;;;;;;;0.70;0.70;;;;;;;11.47;100.00;-20994.09;5053580;28;20478;-69
2021/08/24 04:27:41;;;;;;;0.70;0.70;;;;;;;11.47;100.00;-20994.09;5054900;28;20438;-69
2021/08/24 04:30:09;;;;;;;0.73;0.73;;;;;;;11.41;100.00;-20992.44;5055072;28;20440;-69
2021/08/24 04:32:40;;;;;;;0.77;0.73;;;;;;;11.36;100.00;-20991.06;5052614;28;20971;-69
2021/08/24 04:35:11;;;;;;;0.70;0.60;;;;;;;11.31;100.00;-20989.69;5054723;28;20954;-69
2021/08/24 04:37:38;;;;;;;0.80;0.70;;;;;;;11.32;100.00;-20989.94;5054966;28;20435;-70
2021/08/24 04:40:07;;;;;;;0.70;0.60;;;;;;;11.27;100.00;-20988.56;5054947;28;20796;-70
2021/08/24 04:42:34;;;;;;;0.70;0.60;;;;;;;11.28;100.00;-20988.84;5070349;28;20496;-69
2021/08/24 04:45:01;;;;;;;0.80;0.70;;;;;;;11.24;100.00;-20987.75;5054234;28;20428;-69
2021/08/24 04:47:28;;;;;;;0.70;0.60;;;;;;;11.21;100.00;-20987.03;5054369;28;20429;-69
2021/08/24 04:49:55;;;;;;;0.80;0.70;;;;;;;11.22;100.00;-20987.19;5054569;28;20460;-69
2021/08/24 04:52:23;;;;;;;0.70;0.60;;;;;;;11.20;100.00;-20986.78;5054506;28;20478;-69
2021/08/24 04:54:51;;;;;;;0.80;0.70;;;;;;;11.21;100.00;-20987.03;5054785;28;20412;-69
2021/08/24 04:57:18;;;;;;;0.70;0.60;;;;;;;11.25;100.00;-20988.00;5054514;28;20455;-69
2021/08/24 04:59:45;;;;;;;0.70;0.67;;;;;;;11.31;100.00;-20989.69;5054548;28;20542;-69
2021/08/24 05:02:12;;;;;;;0.70;0.60;;;;;;;11.31;100.00;-20989.69;5084893;28;20525;-69
2021/08/24 05:04:39;;;;;;;0.70;0.70;;;;;;;11.30;100.00;-20989.41;5054218;28;20416;-70
2021/08/24 05:07:06;;;;;;;0.80;0.77;;;;;;;11.33;100.00;-20990.22;5054392;28;20961;-69
2021/08/24 05:09:34;;;;;;;0.70;0.70;;;;;;;11.38;100.00;-20991.59;5054422;28;20467;-70
2021/08/24 05:12:02;;;;;;;0.70;0.70;;;;;;;11.37;100.00;-20991.31;5054633;28;20407;-69
2021/08/24 05:14:29;;;;;;;0.70;0.70;;;;;;;11.42;100.00;-20992.72;5054336;28;20467;-69
2021/08/24 05:16:58;;;;;;;0.70;0.60;;;;;;;11.46;100.00;-20993.69;5052458;28;20835;-69
2021/08/24 05:19:26;;;;;;;0.70;0.60;;;;;;;11.52;100.00;-20995.34;5052753;28;20519;-69
2021/08/24 05:21:54;;;;;;;0.70;0.70;;;;;;;11.58;100.00;-20997.13;5054294;28;21062;-69
2021/08/24 05:24:21;;;;;;;0.70;0.60;;;;;;;11.60;100.00;-20997.69;5054090;28;20456;-69
2021/08/24 05:26:49;;;;;;;0.80;0.70;;;;;;;11.66;100.00;-20999.06;5054200;28;20435;-69
2021/08/24 05:29:17;;;;;;;0.80;0.70;;;;;;;11.72;100.00;-21000.72;5054113;28;20423;-70
2021/08/24 05:31:44;;;;;;;0.70;0.70;;;;;;;11.81;100.00;-21003.22;5052684;28;20924;-70
2021/08/24 05:34:12;;;;;;;0.70;0.60;;;;;;;11.83;100.00;-21003.91;5053604;28;20436;-69
2021/08/24 05:36:40;;;;;;;0.70;0.67;;;;;;;11.88;100.00;-21005.16;5053992;28;20434;-69
2021/08/24 05:39:07;;;;;;;0.70;0.67;;;;;;;12.00;100.00;-21008.47;5053874;28;20774;-69
2021/08/24 05:41:34;;;;;;;0.80;0.70;;;;;;;12.08;100.00;-21010.53;5053844;28;20547;-70
2021/08/24 05:44:03;;;;;;;1.40;0.80;;;;;;;12.21;100.00;-21014.13;5053879;28;20455;-69
2021/08/24 05:46:29;;;;;;;0.93;0.93;;;;;;;12.39;100.00;-21018.97;5053791;28;20420;-69
2021/08/24 05:48:57;;;;;;;0.70;0.70;;;;;;;12.48;100.00;-21021.44;5053648;28;20452;-69
2021/08/24 05:51:24;;;;;;;0.70;0.70;;;;;;;12.64;100.00;-21025.72;5052387;28;20432;-69
2021/08/24 05:53:52;;;;;;;0.70;0.70;;;;;;;12.71;100.00;-21027.50;5053597;28;20543;-69
2021/08/24 05:56:22;;;;;;;0.70;0.60;;;;;;;12.85;100.00;-21031.22;5053441;28;20479;-69
2021/08/24 05:58:52;;;;;;;0.80;0.70;;;;;;;13.03;100.00;-21036.34;5053739;28;20408;-69
2021/08/24 06:01:22;;;;;;;0.70;0.70;;;;;;;13.11;100.00;-21038.28;5052138;28;20448;-69
2021/08/24 06:03:54;;;;;;;0.80;0.70;;;;;;;13.18;100.00;-21040.19;5053734;28;20891;-69
2021/08/24 06:06:24;;;;;;;0.70;0.70;;;;;;;13.25;100.00;-21042.13;5085799;28;20466;-69
2021/08/24 06:08:51;;;;;;;0.70;0.63;;;;;;;13.35;100.00;-21044.75;5052642;28;20533;-69
2021/08/24 06:11:21;;;;;;;0.70;0.60;;;;;;;13.47;100.00;-21048.19;5053757;28;20427;-69
2021/08/24 06:13:48;;;;;;;0.70;0.60;;;;;;;13.58;100.00;-21050.97;5052248;28;20431;-70
2021/08/24 06:16:16;;;;;;;0.70;0.70;;;;;;;13.73;100.00;-21055.09;5051715;28;20448;-70
2021/08/24 06:18:45;;;;;;;0.80;0.70;;;;;;;13.88;100.00;-21059.22;5052601;28;20433;-72
2021/08/24 06:21:12;;;;;;;0.80;0.70;;;;;;;14.06;100.00;-21064.03;5052622;28;20439;-70
2021/08/24 06:23:40;;;;;;;0.70;0.70;;;;;;;14.25;100.00;-21069.16;5035467;28;20475;-69
2021/08/24 06:26:08;;;;;;;0.70;0.70;;;;;;;14.38;100.00;-21072.72;5052140;28;20496;-70
2021/08/24 06:28:35;;;;;;;0.70;0.63;;;;;;;14.49;100.00;-21075.75;5052942;28;20492;-70
2021/08/24 06:31:03;;;;;;;0.73;0.70;;;;;;;14.66;100.00;-21080.16;5052031;28;20535;-70
2021/08/24 06:33:35;;;;;;;0.90;0.90;;;;;;;14.78;100.00;-20796.53;5052736;28;20475;-70
2021/08/24 06:36:05;;;;;;;0.70;0.60;;;;;;;14.92;100.00;-20346.31;5052789;28;20447;-70
2021/08/24 06:38:33;;;;;;;0.80;0.73;;;;;;;15.08;100.00;-20009.91;5052056;28;20466;-70
2021/08/24 06:41:01;;;;;;;1.00;1.00;;;;;;;15.25;100.00;-19486.63;5053213;28;20487;-70
2021/08/24 06:43:29;;;;;;;0.80;0.80;;;;;;;15.45;100.00;-18885.38;5035262;28;20478;-70
2021/08/24 06:45:58;;;;;;;0.70;0.67;;;;;;;15.54;100.00;-18213.03;5053144;28;20426;-70
2021/08/24 06:48:25;;;;;;;0.70;0.70;;;;;;;15.54;100.00;-17748.00;5083941;28;20985;-70
2021/08/24 06:50:53;;;;;;;0.70;0.70;;;;;;;15.67;100.00;-17088.75;5052832;28;20434;-70
2021/08/24 06:53:21;;;;;;;0.70;0.70;;;;;;;15.69;100.00;-16588.47;5052968;28;20540;-70
2021/08/24 06:55:49;;;;;;;0.70;0.70;;;;;;;15.89;100.00;-15889.22;5053131;28;20469;-70
2021/08/24 06:58:19;;;;;;;0.80;0.70;;;;;;;16.01;100.00;-15056.41;5052789;28;20437;-70
2021/08/24 07:00:47;;;;;;;0.70;0.70;;;;;;;16.07;100.00;-14460.00;5053131;28;20463;-70
2021/08/24 07:03:15;;;;;;;0.70;0.60;;;;;;;16.21;100.00;-13702.53;5084311;28;20463;-70
2021/08/24 07:05:44;;;;;;;0.70;0.60;;;;;;;16.36;100.00;-12949.88;5052813;28;20945;-70
2021/08/24 07:08:13;;;;;;;0.70;0.70;;;;;;;16.54;100.00;-12414.91;5052833;28;20445;-70
2021/08/24 07:10:41;;;;;;;0.80;0.70;;;;;;;16.67;100.00;-11749.72;5054539;28;20453;-70
2021/08/24 07:13:08;;;;;;;0.70;0.70;;;;;;;16.89;100.00;-11303.31;5055366;28;20430;-70
2021/08/24 07:15:38;;;;;;;0.70;0.70;;;;;;;17.07;100.00;-10569.19;5036699;28;20949;-70
2021/08/24 07:18:06;;;;;;;0.70;0.63;;;;;;;17.26;100.00;-10306.94;5036157;28;20527;-70
2021/08/24 07:20:33;;;;;;;0.70;0.60;;;;;;;17.34;100.00;-11531.78;5068364;28;21035;-70
2021/08/24 07:23:02;;;;;;;0.70;0.70;;;;;;;17.49;100.00;-12960.38;5035188;28;21008;-70
2021/08/24 07:25:31;;;;;;;0.70;0.60;;;;;;;17.61;100.00;-15895.88;5036730;28;20512;-70
2021/08/24 07:28:00;;;;;;;0.80;0.80;;;;;;;17.72;100.00;-19752.00;5036132;28;20896;-70
2021/08/24 07:30:27;;;;;;;0.70;0.60;;;;;;;17.95;100.00;-21168.59;5036437;28;20449;-71
2021/08/24 07:32:54;;;;;;;0.70;0.70;;;;;;;18.25;100.00;-21176.81;5046621;28;20423;-71
2021/08/24 07:35:21;;;;;;;0.70;0.70;;;;;;;18.39;100.00;-21180.53;5056016;28;20496;-70
2021/08/24 07:37:48;;;;;;;0.70;0.60;;;;;;;18.60;100.00;-21186.13;5056076;28;20443;-71
2021/08/24 07:40:16;;;;;;;1.00;0.80;;;;;;;18.59;100.00;-21186.00;5056236;28;20415;-70
2021/08/24 07:42:45;;;;;;;0.70;0.70;;;;;;;18.76;100.00;-21190.53;5054676;28;20459;-71
2021/08/24 07:45:15;;;;;;;0.70;0.70;;;;;;;18.89;100.00;-21193.94;5055922;28;20474;-71
2021/08/24 07:47:46;;;;;;;0.70;0.60;;;;;;;19.05;100.00;-21198.31;5036670;28;20459;-71
2021/08/24 07:50:14;;;;;;;0.70;0.60;;;;;;;18.94;100.00;-21195.31;5055664;28;20514;-71
2021/08/24 07:52:41;;;;;;;0.70;0.70;;;;;;;18.81;100.00;-21191.88;5056066;28;20435;-71
2021/08/24 07:55:09;;;;;;;0.70;0.70;;;;;;;19.16;100.00;-21201.19;5054759;28;20483;-70
2021/08/24 07:57:36;;;;;;;0.80;0.70;;;;;;;19.37;100.00;-21206.66;5054885;28;20904;-71
2021/08/24 08:00:04;;;;;;;0.70;0.70;;;;;;;19.51;100.00;-21210.50;5035708;28;20479;-71
2021/08/24 08:02:39;;;;;;;0.70;0.60;;;;;;;19.51;100.00;-21210.50;5051040;28;20474;-70
2021/08/24 08:05:07;;;;;;;0.80;0.70;;;;;;;19.96;100.00;-21222.53;5054067;28;20492;-70
2021/08/24 08:07:38;;;;;;;0.80;0.80;;;;;;;20.31;100.00;-21231.81;5055501;28;20405;-70
2021/08/24 08:10:07;;;;;;;0.70;0.70;;;;;;;20.45;100.00;-21235.63;5055446;28;20387;-71
2021/08/24 08:12:33;;;;;;;0.80;0.60;;;;;;;20.64;100.00;-21240.81;5054364;28;20420;-71
2021/08/24 08:15:02;;;;;;;0.73;0.60;;;;;;;20.89;100.00;-21247.38;5054672;28;20436;-72
2021/08/24 08:17:29;;;;;;;0.70;0.60;;;;;;;21.45;100.00;-21262.38;5054650;28;20920;-71
2021/08/24 08:19:58;;;;;;;0.77;0.63;;;;;;;21.31;100.00;-21258.56;5054043;28;20443;-71
2021/08/24 08:22:25;;;;;;;0.70;0.60;;;;;;;21.34;100.00;-21259.38;5054646;28;20466;-69
2021/08/24 08:24:54;;;;;;;0.70;0.60;;;;;;;21.51;100.00;-21263.88;5055271;28;20436;-71
2021/08/24 08:27:22;;;;;;;0.70;0.70;;;;;;;21.71;100.00;-21269.47;5055105;28;20432;-71
2021/08/24 08:29:49;;;;;;;0.70;0.60;;;;;;;22.01;100.00;-21277.25;5052721;28;21044;-70
2021/08/24 08:32:23;;;;;;;0.80;0.80;;;;;;;22.47;100.00;-21289.50;5054138;28;20435;-71
2021/08/24 08:34:50;;;;;;;0.80;0.70;;;;;;;21.86;100.00;-21273.28;5054925;28;20909;-71
2021/08/24 08:37:20;;;;;;;0.90;0.70;;;;;;;22.01;100.00;-21277.38;5036411;28;20444;-71
2021/08/24 08:39:47;;;;;;;0.80;0.70;;;;;;;21.99;100.00;-21276.84;5054667;28;20408;-71
2021/08/24 08:42:38;;;;;;;0.70;0.50;;;;;;;22.68;100.00;-21295.22;5054952;28;20439;-71
2021/08/24 08:45:11;;;;;;;0.70;0.60;;;;;;;23.45;100.00;-21315.75;5053561;28;20436;-71
2021/08/24 08:48:08;;;;;;;0.70;0.50;;;;;;;23.54;100.00;-21318.22;5052478;28;20448;-71
2021/08/24 08:50:43;;;;;;;0.70;0.50;;;;;;;23.22;100.00;-21309.66;5054676;28;20419;-73
2021/08/24 08:53:22;;;;;;;0.70;0.50;;;;;;;23.65;100.00;-21321.06;5054037;28;21007;-72
2021/08/24 08:55:53;;;;;;;1.80;0.70;;;;;;;24.19;100.00;-21335.31;5033724;28;20536;-72
2021/08/24 08:58:32;;;;;;;0.70;0.60;;;;;;;24.16;100.00;-21334.53;5034152;28;20472;-72
2021/08/24 09:01:03;;;;;;;0.70;0.50;;;;;;;24.49;100.00;-21343.34;5034881;28;20409;-72
2021/08/24 09:03:45;;;;;;;0.70;0.50;;;;;;;24.65;100.00;-21347.56;5034710;28;20461;-71
2021/08/24 09:06:15;;;;;;;0.70;0.50;;;;;;;24.96;100.00;-21355.97;5042465;28;20514;-72
2021/08/24 09:08:44;;;;;;;0.70;0.53;;;;;;;25.91;100.00;-21381.19;5054377;28;20452;-72
2021/08/24 09:11:13;;;;;;;0.70;0.50;;;;;;;25.88;100.00;-21380.38;5054369;28;20935;-73
2021/08/24 09:13:45;;;;;;;0.70;0.60;;;;;;;26.06;100.00;-21385.09;5049172;28;20884;-72
2021/08/24 09:16:25;;;;;;;0.70;0.50;;;;;;;26.42;100.00;-21394.59;5033055;28;20425;-72
2021/08/24 09:18:56;;;;;;;0.93;0.60;;;;;;;25.43;100.00;-21368.44;5033027;28;20440;-74
2021/08/24 09:21:25;;;;;;;0.70;0.50;;;;;;;25.14;100.00;-21360.56;5033040;28;20461;-71
2021/08/24 09:23:55;;;;;;;0.80;0.50;;;;;;;26.02;100.00;-21384.16;5033909;28;20551;-72
2021/08/24 09:26:37;;;;;;;2.37;1.10;;;;;;;25.74;100.00;-21376.56;5032970;28;20501;-71
2021/08/24 09:29:05;;;;;;;0.70;0.50;;;;;;;26.64;100.00;-21400.41;5033577;28;20428;-73
2021/08/24 09:31:35;;;;;;;0.70;0.50;;;;;;;26.64;100.00;-21400.53;5042659;28;20450;-71
2021/08/24 09:34:03;;;;;;;0.70;0.50;;;;;;;26.64;100.00;-21400.53;5053880;28;20475;-72
2021/08/24 09:36:30;;;;;;;1.43;0.63;;;;;;;26.78;100.00;-21404.06;5053218;28;20428;-72
2021/08/24 09:39:00;;;;;;;0.73;0.60;;;;;;;25.85;100.00;-21379.56;5052779;28;20444;-70
2021/08/24 09:41:30;;;;;;;0.80;0.50;;;;;;;25.88;100.00;-21380.38;5053767;28;20432;-72
2021/08/24 09:44:22;;;;;;;0.70;0.60;;;;;;;26.03;100.00;-21384.28;5052538;28;21087;-71
2021/08/24 09:46:50;;;;;;;0.70;0.50;;;;;;;26.02;100.00;-21384.16;5053611;28;20439;-71
2021/08/24 09:49:33;;;;;;;0.70;0.50;;;;;;;26.37;100.00;-21393.22;5052317;28;20455;-71
2021/08/24 09:52:04;;;;;;;1.00;0.90;;;;;;;26.03;100.00;-21384.28;5053307;28;20429;-72
2021/08/24 09:54:40;;;;;;;0.80;0.60;;;;;;;26.17;100.00;-21388.09;5053538;28;20505;-72
2021/08/24 09:57:19;;;;;;;1.00;0.70;;;;;;;26.43;100.00;-21395.00;5052790;28;20474;-72
2021/08/24 10:00:17;;;;;;;0.70;0.50;;;;;;;27.17;100.00;-21414.47;5053247;28;20485;-72
2021/08/24 10:02:46;;;;;;;0.70;0.50;;;;;;;26.33;100.00;-21392.28;5053620;28;20442;-72
2021/08/24 10:05:31;;;;;;;4.87;1.00;;;;;;;26.14;100.00;-21387.28;5052675;28;20436;-74
2021/08/24 10:08:01;;;;;;;0.70;0.50;;;;;;;26.43;100.00;-21394.84;5052047;28;20459;-71
2021/08/24 10:10:33;;;;;;;0.70;0.50;;;;;;;26.86;100.00;-21406.34;5051770;28;20436;-72
2021/08/24 10:13:21;;;;;;;0.70;0.50;;;;;;;27.28;100.00;-21417.31;5053304;28;20791;-71
2021/08/24 10:15:49;;;;;;;0.70;0.50;;;;;;;26.69;100.00;-21401.75;5033876;28;20819;-72
2021/08/24 10:18:24;;;;;;;0.70;0.50;;;;;;;26.74;100.00;-21403.13;5033548;28;20425;-73
2021/08/24 10:20:55;;;;;;;0.70;0.50;;;;;;;27.06;100.00;-21411.50;5033477;28;20409;-72
2021/08/24 10:23:29;;;;;;;0.80;0.60;;;;;;;26.67;100.00;-21401.22;5033416;28;20972;-73
2021/08/24 10:26:00;;;;;;;0.70;0.50;;;;;;;27.12;100.00;-21413.25;5036161;28;20432;-73
2021/08/24 10:28:31;;;;;;;0.70;0.50;;;;;;;27.17;100.00;-21414.47;5053074;28;20776;-72
2021/08/24 10:30:59;;;;;;;0.70;0.50;;;;;;;27.19;100.00;-21415.00;5053083;28;20408;-72
2021/08/24 10:33:33;;;;;;;0.70;0.50;;;;;;;27.37;100.00;-21419.88;5052138;28;20409;-72
2021/08/24 10:36:06;;;;;;;0.80;0.70;;;;;;;27.64;100.00;-21427.03;5053155;28;20424;-71
2021/08/24 10:38:37;;;;;;;3.17;1.43;;;;;;;26.35;100.00;-21392.81;5053310;28;20502;-73
2021/08/24 10:41:22;;;;;;;0.70;0.50;;;;;;;27.03;100.00;-21410.69;5052151;28;20443;-72
2021/08/24 10:44:21;;;;;;;0.70;0.50;;;;;;;27.11;100.00;-21412.84;5055097;28;20470;-72
2021/08/24 10:47:02;;;;;;;0.70;0.50;;;;;;;26.55;100.00;-21397.97;5037094;28;20753;-72
2021/08/24 10:49:31;;;;;;;0.90;0.70;;;;;;;26.95;100.00;-21408.78;5036857;28;20448;-73
2021/08/24 10:52:08;;;;;;;0.70;0.50;;;;;;;26.75;100.00;-21403.38;5036008;28;20413;-74
2021/08/24 10:54:58;;;;;;;0.70;0.50;;;;;;;27.66;100.00;-21427.44;5036890;28;20452;-72
2021/08/24 10:57:39;;;;;;;0.83;0.60;;;;;;;27.86;100.00;-21432.72;5034013;28;20448;-73
2021/08/24 11:00:19;;;;;;;0.80;0.70;;;;;;;26.83;100.00;-21405.53;5036554;28;20413;-74
2021/08/24 11:02:59;;;;;;;0.70;0.50;;;;;;;27.04;100.00;-21410.97;5055588;28;20459;-73
2021/08/24 11:05:39;;;;;;;0.70;0.50;;;;;;;27.20;100.00;-21415.28;5056837;28;20912;-73
2021/08/24 11:08:22;;;;;;;0.70;0.50;;;;;;;27.51;100.00;-21423.41;5056485;28;20454;-72
2021/08/24 11:10:59;;;;;;;0.70;0.50;;;;;;;27.03;100.00;-21410.69;5056672;28;20901;-72
2021/08/24 11:13:40;;;;;;;0.70;0.50;;;;;;;26.92;100.00;-21407.97;5055262;28;20471;-72
2021/08/24 11:16:21;;;;;;;0.70;0.50;;;;;;;27.31;100.00;-21418.25;5056138;28;20470;-72
2021/08/24 11:18:50;;;;;;;0.70;0.50;;;;;;;27.95;100.00;-21435.16;5056074;28;20413;-72
2021/08/24 11:21:27;;;;;;;1.23;1.13;;;;;;;28.23;100.00;-21442.56;5088773;28;20432;-73
2021/08/24 11:24:08;;;;;;;0.70;0.50;;;;;;;27.40;100.00;-21420.69;5056389;28;20471;-73
2021/08/24 11:26:44;;;;;;;0.70;0.50;;;;;;;27.87;100.00;-21432.97;5055868;28;20439;-72
2021/08/24 11:29:24;;;;;;;0.97;0.83;;;;;;;27.52;100.00;-21423.66;5088622;28;20436;-74
2021/08/24 11:32:00;;;;;;;0.70;0.50;;;;;;;27.39;100.00;-21420.28;5054747;28;20494;-73
2021/08/24 11:34:33;;;;;;;0.70;0.50;;;;;;;28.27;100.00;-21443.66;5087120;28;20439;-72
2021/08/24 11:37:04;;;;;;;0.70;0.50;;;;;;;27.31;100.00;-21418.13;5056273;28;20448;-71